Weather at Kalamazoo Battle Creek International Airport

Public forecast

Using degrees Fahrenheit for public forecast. Weather courtesy of forecast.io.

Current aviation weather report (METAR) for Kalamazoo Battle Creek International Airport

Retrieved 2021/12/05 10:53 UTC (13 minutes ago):

KAZO 051053Z VRB05KT 10SM OVC095 02/M06 A3020 RMK AO2 SLP234 T00171061

Aviation forecast (TAF) for Kalamazoo Battle Creek International Airport

Retrieved 2021/12/05 06:51 UTC (4 hours ago):

TAF KAZO 050549Z 0506/0606 00000KT P6SM OVC100 FM051200 11005KT P6SM OVC080 FM051800 14016G27KT P6SM -RAPL OVC080 FM052000 15015G26KT P6SM -RA OVC045 FM052100 16015G26KT 4SM RA BR OVC024 WS020/19040KT FM052300 18013G22KT 2SM RA BR OVC009 WS020/21045KT FM060300 22007KT 2SM RA BR OVC004